createdAt,value
2022-09-28T00:01:15.626Z,14.30
2022-09-28T00:03:48.068Z,9.40
2022-09-28T00:06:22.371Z,12.20
2022-09-28T00:08:54.393Z,11.80
2022-09-28T00:11:29.176Z,10.20
2022-09-28T00:14:03.667Z,12.80
2022-09-28T00:16:37.596Z,13.50
2022-09-28T00:19:09.276Z,11.50
2022-09-28T00:21:43.099Z,21.10
2022-09-28T00:24:19.051Z,14.30
2022-09-28T00:26:52.784Z,15.10
2022-09-28T00:29:27.262Z,13.00
2022-09-28T00:32:02.926Z,10.50
2022-09-28T00:34:37.043Z,13.60
2022-09-28T00:37:09.806Z,15.30
2022-09-28T00:39:43.415Z,13.70
2022-09-28T00:42:18.038Z,16.30
2022-09-28T00:44:53.866Z,11.00
2022-09-28T00:47:38.354Z,16.90
2022-09-28T00:50:15.585Z,13.80
2022-09-28T00:52:49.922Z,13.50
2022-09-28T00:55:26.271Z,11.40
2022-09-28T00:58:02.310Z,15.20
2022-09-28T01:00:34.129Z,11.80
2022-09-28T01:03:06.493Z,14.90
2022-09-28T01:05:40.188Z,15.10
2022-09-28T01:08:13.334Z,15.60
2022-09-28T01:10:44.889Z,15.70
2022-09-28T01:13:18.634Z,23.50
2022-09-28T01:15:58.901Z,20.50
2022-09-28T01:18:41.191Z,26.00
2022-09-28T01:21:17.637Z,34.70
2022-09-28T01:24:22.728Z,14.30
2022-09-28T01:27:06.578Z,17.90
2022-09-28T01:29:47.632Z,18.30
2022-09-28T01:32:33.482Z,18.90
2022-09-28T01:35:09.884Z,15.40
2022-09-28T01:37:52.960Z,16.80
2022-09-28T01:40:27.210Z,19.80
2022-09-28T01:43:04.050Z,15.70
2022-09-28T01:45:42.500Z,15.10
2022-09-28T01:48:18.584Z,16.60
2022-09-28T01:50:55.937Z,19.50
2022-09-28T01:53:33.105Z,18.10
2022-09-28T01:56:14.345Z,19.60
2022-09-28T01:58:50.579Z,19.70
2022-09-28T02:01:28.366Z,20.80
2022-09-28T02:04:07.192Z,23.80
2022-09-28T02:06:42.940Z,16.10
2022-09-28T02:09:20.117Z,17.70
2022-09-28T02:11:57.499Z,17.90
2022-09-28T02:14:30.563Z,19.80
2022-09-28T02:17:02.383Z,19.60
2022-09-28T02:19:36.485Z,16.90
2022-09-28T02:22:16.966Z,16.90
2022-09-28T02:24:54.744Z,22.60
2022-09-28T02:27:36.127Z,17.20
2022-09-28T02:30:10.039Z,17.70
2022-09-28T02:32:47.082Z,16.10
2022-09-28T02:35:20.649Z,19.70
2022-09-28T02:37:52.355Z,15.00
2022-09-28T02:40:29.366Z,15.70
2022-09-28T02:43:09.601Z,14.00
2022-09-28T02:45:52.066Z,16.30
2022-09-28T02:48:43.956Z,14.50
2022-09-28T02:51:27.644Z,17.90
2022-09-28T02:54:28.179Z,19.00
2022-09-28T02:57:11.320Z,18.00
2022-09-28T03:00:03.015Z,17.20
2022-09-28T03:02:41.940Z,17.50
2022-09-28T03:05:23.612Z,18.10
2022-09-28T03:08:00.211Z,17.40
2022-09-28T03:10:39.322Z,18.80
2022-09-28T03:13:12.651Z,17.10
2022-09-28T03:15:48.502Z,15.50
2022-09-28T03:18:20.521Z,18.50
2022-09-28T03:23:25.608Z,18.50
2022-09-28T03:25:57.378Z,18.00
2022-09-28T03:30:59.820Z,18.30
2022-09-28T03:36:01.518Z,18.00
2022-09-28T03:38:33.681Z,18.60
2022-09-28T03:41:05.756Z,19.60
2022-09-28T03:43:39.487Z,20.80
2022-09-28T03:48:45.330Z,18.30
2022-09-28T03:53:46.788Z,19.40
2022-09-28T03:58:48.921Z,17.50
2022-09-28T04:03:56.139Z,16.70
2022-09-28T04:06:28.752Z,18.90
2022-09-28T04:09:00.941Z,15.00
2022-09-28T04:11:47.651Z,17.70
2022-09-28T04:14:25.213Z,13.90
2022-09-28T04:16:57.544Z,18.80
2022-09-28T04:19:30.988Z,15.40
2022-09-28T04:24:52.782Z,18.60
2022-09-28T04:27:42.059Z,15.20
2022-09-28T04:30:15.696Z,13.70
2022-09-28T04:32:50.157Z,16.50
2022-09-28T04:35:22.331Z,13.40
2022-09-28T04:37:53.988Z,14.80
2022-09-28T04:42:59.029Z,17.70
2022-09-28T04:45:30.710Z,12.20
2022-09-28T04:48:09.924Z,13.80
2022-09-28T04:51:01.397Z,17.90
2022-09-28T04:53:32.904Z,14.40
2022-09-28T04:56:06.300Z,12.00
2022-09-28T04:58:38.644Z,12.70
2022-09-28T05:01:14.739Z,12.80
2022-09-28T05:04:04.631Z,13.50
2022-09-28T05:06:42.831Z,17.40
2022-09-28T05:11:44.276Z,12.30
2022-09-28T05:14:21.907Z,12.00
2022-09-28T05:16:53.457Z,14.00
2022-09-28T05:19:31.368Z,11.40
2022-09-28T05:22:11.334Z,11.90
2022-09-28T05:24:46.472Z,16.60
2022-09-28T05:27:19.780Z,13.10
2022-09-28T05:29:59.649Z,11.20
2022-09-28T05:33:06.854Z,11.00
2022-09-28T05:35:55.146Z,13.50
2022-09-28T05:38:29.156Z,13.30
2022-09-28T05:41:05.736Z,14.30
2022-09-28T05:43:38.443Z,12.60
2022-09-28T05:46:10.202Z,12.60
2022-09-28T05:48:44.647Z,12.20
2022-09-28T05:53:46.175Z,11.20
2022-09-28T05:56:22.206Z,11.00
2022-09-28T05:58:54.862Z,11.30
2022-09-28T06:01:27.879Z,10.40
2022-09-28T06:04:01.621Z,12.60
2022-09-28T06:06:33.078Z,10.80
2022-09-28T06:09:05.400Z,10.50
2022-09-28T06:11:49.374Z,11.20
2022-09-28T06:14:29.869Z,11.20
2022-09-28T06:19:31.444Z,10.40
2022-09-28T06:22:29.466Z,13.80
2022-09-28T06:25:10.381Z,10.10
2022-09-28T06:27:43.361Z,12.70
2022-09-28T06:30:17.160Z,13.30
2022-09-28T06:32:49.842Z,12.10
2022-09-28T06:35:21.850Z,15.10
2022-09-28T06:37:53.817Z,12.90
2022-09-28T06:40:26.511Z,10.50
2022-09-28T06:42:59.738Z,9.60
2022-09-28T06:45:55.719Z,11.60
2022-09-28T06:48:47.205Z,13.00
2022-09-28T06:51:24.993Z,11.90
2022-09-28T06:54:06.163Z,11.40
2022-09-28T06:56:58.078Z,9.80
2022-09-28T07:02:02.491Z,10.80
2022-09-28T07:04:52.692Z,13.00
2022-09-28T07:08:03.777Z,15.70
2022-09-28T07:13:57.628Z,11.20
2022-09-28T07:19:19.988Z,13.20
2022-09-28T07:24:36.888Z,16.10
2022-09-28T07:27:38.244Z,14.30
2022-09-28T07:30:35.883Z,12.70
2022-09-28T07:36:25.924Z,16.60
2022-09-28T07:38:57.975Z,12.50
2022-09-28T07:41:33.805Z,15.00
2022-09-28T07:44:07.872Z,12.60
2022-09-28T07:46:41.041Z,13.40
2022-09-28T07:49:19.655Z,11.50
2022-09-28T07:52:10.732Z,9.50
2022-09-28T07:55:06.663Z,11.00
2022-09-28T07:58:01.714Z,9.00
2022-09-28T08:00:52.961Z,11.90
2022-09-28T08:03:24.457Z,11.70
2022-09-28T08:06:01.176Z,10.50
2022-09-28T08:08:34.328Z,12.70
2022-09-28T08:11:10.239Z,9.60
2022-09-28T08:14:00.667Z,26.90
2022-09-28T08:16:53.191Z,11.00
2022-09-28T08:19:56.802Z,10.50
2022-09-28T08:22:30.294Z,8.30
2022-09-28T08:25:01.852Z,10.00
2022-09-28T08:27:34.010Z,10.70
2022-09-28T08:30:09.181Z,9.00
2022-09-28T08:32:56.693Z,10.10
2022-09-28T08:35:47.005Z,8.60
2022-09-28T08:38:37.154Z,12.90
2022-09-28T08:41:36.889Z,8.70
2022-09-28T08:44:24.006Z,11.90
2022-09-28T08:47:42.910Z,8.90
2022-09-28T08:50:53.156Z,8.50
2022-09-28T08:53:45.710Z,10.80
2022-09-28T08:59:01.074Z,13.30
2022-09-28T09:01:38.202Z,8.50
2022-09-28T09:04:13.585Z,9.90
2022-09-28T09:07:19.612Z,10.70
2022-09-28T09:10:20.679Z,8.00
2022-09-28T09:13:01.255Z,8.60
2022-09-28T09:15:48.546Z,8.60
2022-09-28T09:18:44.093Z,7.20
2022-09-28T09:21:42.351Z,8.80
2022-09-28T09:24:27.054Z,9.40
2022-09-28T09:27:15.470Z,6.90
2022-09-28T09:30:01.424Z,9.90
2022-09-28T09:32:54.219Z,8.90
2022-09-28T09:35:41.925Z,6.90
2022-09-28T09:39:06.083Z,8.20
2022-09-28T09:42:12.131Z,9.50
2022-09-28T09:45:26.245Z,7.60
2022-09-28T09:48:16.303Z,9.10
2022-09-28T09:50:52.265Z,9.60
2022-09-28T09:53:29.909Z,8.00
2022-09-28T09:56:07.441Z,7.10
2022-09-28T09:58:49.945Z,6.90
2022-09-28T10:01:34.384Z,7.10
2022-09-28T10:04:36.126Z,6.00
2022-09-28T10:07:21.745Z,6.60
2022-09-28T10:09:58.239Z,9.50
2022-09-28T10:12:43.867Z,6.00
2022-09-28T10:15:20.136Z,6.00
2022-09-28T10:18:03.019Z,4.90
2022-09-28T10:20:54.167Z,5.90
2022-09-28T10:23:38.989Z,4.40
2022-09-28T10:26:16.071Z,6.40
2022-09-28T10:28:53.130Z,6.10
2022-09-28T10:31:43.020Z,4.60
2022-09-28T10:34:30.843Z,7.30
2022-09-28T10:37:12.468Z,5.00
2022-09-28T10:40:21.742Z,9.00
2022-09-28T10:43:00.425Z,4.70
2022-09-28T10:45:36.116Z,4.30
2022-09-28T10:48:16.858Z,5.80
2022-09-28T10:51:00.139Z,7.00
2022-09-28T10:53:31.831Z,5.30
2022-09-28T10:56:25.261Z,6.20
2022-09-28T10:59:23.357Z,4.70
2022-09-28T11:02:00.873Z,4.10
2022-09-28T11:04:44.412Z,7.30
2022-09-28T11:07:22.556Z,6.20
2022-09-28T11:09:56.446Z,5.10
2022-09-28T11:12:32.422Z,5.40
2022-09-28T11:15:07.348Z,4.50
2022-09-28T11:17:42.005Z,9.50
2022-09-28T11:20:35.514Z,5.20
2022-09-28T11:23:27.498Z,4.40
2022-09-28T11:26:03.991Z,5.40
2022-09-28T11:28:37.507Z,6.00
2022-09-28T11:31:14.935Z,5.10
2022-09-28T11:34:15.890Z,6.10
2022-09-28T11:37:27.526Z,8.70
2022-09-28T11:40:12.421Z,7.50
2022-09-28T11:42:54.300Z,7.20
2022-09-28T11:45:38.719Z,6.40
2022-09-28T11:48:15.585Z,6.70
2022-09-28T11:50:53.105Z,6.50
2022-09-28T11:53:46.065Z,10.70
2022-09-28T11:56:26.952Z,8.80
2022-09-28T11:59:02.511Z,7.30
2022-09-28T12:01:48.316Z,6.80
2022-09-28T12:04:32.933Z,8.80
2022-09-28T12:07:15.964Z,10.50
2022-09-28T12:09:55.481Z,5.90
2022-09-28T12:12:33.407Z,6.60
2022-09-28T12:15:18.883Z,5.90
2022-09-28T12:18:00.260Z,8.50
2022-09-28T12:20:35.104Z,6.70
2022-09-28T12:23:14.451Z,7.20
2022-09-28T12:25:49.172Z,9.00
2022-09-28T12:28:27.813Z,9.40
2022-09-28T12:31:02.028Z,7.80
2022-09-28T12:33:54.886Z,8.90
2022-09-28T12:39:57.681Z,9.30
2022-09-28T12:42:53.000Z,7.40
2022-09-28T12:45:59.731Z,6.20
2022-09-28T12:49:33.175Z,8.00
2022-09-28T12:51:52.782Z,7.10
2022-09-28T12:54:54.181Z,6.30
2022-09-28T12:58:01.762Z,8.70
2022-09-28T13:00:48.706Z,14.00
2022-09-28T13:03:41.209Z,5.90
2022-09-28T13:06:37.493Z,6.30
2022-09-28T13:09:24.580Z,7.50
2022-09-28T13:12:06.144Z,8.70
2022-09-28T13:14:58.956Z,9.00
2022-09-28T13:17:44.629Z,5.60
2022-09-28T13:20:30.129Z,6.80
2022-09-28T13:23:12.483Z,9.20
2022-09-28T13:25:48.796Z,11.10
2022-09-28T13:28:27.027Z,7.30
2022-09-28T13:31:02.189Z,5.20
2022-09-28T13:33:37.059Z,6.10
2022-09-28T13:36:47.994Z,4.90
2022-09-28T13:39:46.426Z,5.50
2022-09-28T13:42:44.230Z,6.40
2022-09-28T13:45:39.093Z,7.60
2022-09-28T13:48:17.725Z,12.20
2022-09-28T13:51:11.026Z,9.10
2022-09-28T13:53:59.027Z,8.30
2022-09-28T13:56:38.135Z,8.90
2022-09-28T13:59:20.798Z,9.90
2022-09-28T14:02:05.682Z,11.70
2022-09-28T14:05:01.055Z,10.20
2022-09-28T14:07:59.683Z,10.70
2022-09-28T14:10:49.785Z,9.70
2022-09-28T14:13:56.222Z,13.00
2022-09-28T14:16:31.118Z,10.40
2022-09-28T14:19:08.042Z,9.70
2022-09-28T14:22:07.936Z,7.60
2022-09-28T14:24:59.345Z,8.40
2022-09-28T14:28:04.947Z,13.30
2022-09-28T14:30:51.448Z,9.30
2022-09-28T14:33:29.143Z,9.50
2022-09-28T14:36:04.659Z,9.40
2022-09-28T14:39:03.263Z,11.20
2022-09-28T14:41:37.678Z,14.20
2022-09-28T14:44:12.156Z,7.80
2022-09-28T14:47:11.377Z,10.80
2022-09-28T14:50:02.605Z,9.00
2022-09-28T14:52:47.664Z,9.10
2022-09-28T14:55:25.691Z,14.10
2022-09-28T14:58:05.617Z,9.20
2022-09-28T15:00:39.393Z,9.70
2022-09-28T15:03:14.346Z,12.00
2022-09-28T15:05:48.225Z,15.80
2022-09-28T15:08:22.526Z,10.70
2022-09-28T15:10:54.233Z,10.40
2022-09-28T15:13:28.201Z,9.90
2022-09-28T15:16:05.422Z,12.00
2022-09-28T15:19:01.524Z,11.50
2022-09-28T15:21:42.028Z,14.50
2022-09-28T15:24:33.667Z,11.00
2022-09-28T15:27:15.756Z,10.00
2022-09-28T15:29:58.919Z,8.90
2022-09-28T15:32:32.236Z,8.00
2022-09-28T15:35:20.552Z,7.40
2022-09-28T15:37:52.922Z,9.70
2022-09-28T15:40:33.162Z,8.30
2022-09-28T15:43:13.436Z,13.10
2022-09-28T15:45:52.637Z,10.10
2022-09-28T15:48:32.404Z,9.60
2022-09-28T15:51:10.812Z,12.00
2022-09-28T15:53:56.056Z,9.90
2022-09-28T15:56:28.422Z,10.10
2022-09-28T15:59:27.474Z,9.20
2022-09-28T16:02:16.061Z,11.20
2022-09-28T16:04:51.739Z,10.10
2022-09-28T16:07:28.602Z,12.40
2022-09-28T16:10:03.313Z,15.20
2022-09-28T16:12:46.137Z,11.30
2022-09-28T16:15:21.784Z,20.70
2022-09-28T16:17:55.965Z,20.40
2022-09-28T16:20:32.037Z,9.40
2022-09-28T16:23:18.389Z,10.20
2022-09-28T16:25:53.902Z,8.80
2022-09-28T16:28:48.989Z,9.90
2022-09-28T16:31:29.693Z,9.60
2022-09-28T16:34:11.670Z,9.90
2022-09-28T16:36:45.561Z,9.10
2022-09-28T16:39:18.217Z,14.80
2022-09-28T16:41:53.744Z,10.50
2022-09-28T16:44:28.439Z,10.30
2022-09-28T16:47:01.187Z,13.60
2022-09-28T16:49:33.927Z,13.10
2022-09-28T16:52:10.178Z,10.40
2022-09-28T16:54:59.044Z,12.20
2022-09-28T16:57:30.567Z,9.90
2022-09-28T17:02:46.256Z,9.60
2022-09-28T17:05:19.358Z,12.30
2022-09-28T17:07:56.607Z,8.60
2022-09-28T17:10:45.040Z,10.20
2022-09-28T17:13:31.384Z,11.70
2022-09-28T17:16:06.254Z,10.00
2022-09-28T17:18:39.030Z,12.50
2022-09-28T17:21:15.783Z,11.90
2022-09-28T17:23:49.248Z,11.00
2022-09-28T17:26:27.275Z,10.10
2022-09-28T17:28:59.358Z,10.80
2022-09-28T17:31:31.358Z,11.00
2022-09-28T17:34:03.028Z,10.90
2022-09-28T17:36:35.202Z,11.40
2022-09-28T17:39:07.457Z,14.20
2022-09-28T17:41:40.197Z,16.40
2022-09-28T17:44:15.180Z,16.70
2022-09-28T17:46:49.429Z,26.10
2022-09-28T17:49:21.136Z,13.20
2022-09-28T17:51:52.912Z,13.00
2022-09-28T17:54:25.966Z,13.70
2022-09-28T17:56:58.274Z,36.90
2022-09-28T17:59:29.875Z,23.30
2022-09-28T18:02:02.583Z,24.20
2022-09-28T18:04:51.191Z,20.00
2022-09-28T18:07:23.532Z,22.30
2022-09-28T18:09:58.306Z,16.40
2022-09-28T18:12:30.148Z,18.70
2022-09-28T18:15:01.969Z,14.40
2022-09-28T18:17:34.063Z,18.50
2022-09-28T18:20:06.762Z,17.60
2022-09-28T18:22:39.123Z,13.00
2022-09-28T18:25:12.962Z,17.20
2022-09-28T18:27:44.740Z,20.00
2022-09-28T18:30:16.557Z,16.40
2022-09-28T18:32:48.419Z,13.80
2022-09-28T18:35:23.123Z,17.10
2022-09-28T18:37:55.303Z,16.40
2022-09-28T18:40:27.964Z,17.00
2022-09-28T18:42:59.943Z,17.80
2022-09-28T18:45:31.813Z,16.70
2022-09-28T18:48:03.739Z,21.80
2022-09-28T18:50:35.687Z,16.50
2022-09-28T18:53:13.484Z,13.30
2022-09-28T18:55:45.765Z,14.50
2022-09-28T18:58:17.702Z,15.10
2022-09-28T19:00:49.613Z,13.80
2022-09-28T19:03:21.484Z,12.30
2022-09-28T19:05:53.445Z,10.00
2022-09-28T19:08:27.686Z,9.20
2022-09-28T19:11:08.293Z,10.70
2022-09-28T19:13:40.443Z,11.90
2022-09-28T19:16:14.105Z,11.60
2022-09-28T19:18:45.748Z,12.10
2022-09-28T19:21:17.866Z,14.20
2022-09-28T19:23:50.161Z,9.50
2022-09-28T19:26:23.492Z,8.30
2022-09-28T19:28:56.155Z,9.80
2022-09-28T19:31:28.347Z,11.90
2022-09-28T19:34:00.262Z,10.10
2022-09-28T19:36:32.557Z,12.30
2022-09-28T19:39:04.226Z,10.90
2022-09-28T19:41:44.448Z,10.40
2022-09-28T19:44:25.087Z,10.30
2022-09-28T19:46:59.868Z,9.10
2022-09-28T19:49:33.189Z,8.80
2022-09-28T19:52:13.402Z,8.70
2022-09-28T19:54:55.730Z,10.90
2022-09-28T19:57:28.743Z,12.50
2022-09-28T20:00:03.120Z,12.80
2022-09-28T20:02:39.327Z,13.40
2022-09-28T20:07:41.114Z,14.20
2022-09-28T20:12:43.404Z,11.80
2022-09-28T20:17:44.903Z,12.10
2022-09-28T20:22:46.503Z,9.30
2022-09-28T20:28:31.401Z,9.40
2022-09-28T20:31:21.556Z,9.90
2022-09-28T20:33:53.526Z,10.30
2022-09-28T20:36:26.355Z,14.90
2022-09-28T20:38:58.375Z,10.50
2022-09-28T20:41:35.484Z,13.30
2022-09-28T20:44:07.927Z,11.20
2022-09-28T20:46:39.758Z,9.70
2022-09-28T20:49:11.321Z,11.40
2022-09-28T20:54:13.206Z,11.50
2022-09-28T20:59:15.049Z,9.10
2022-09-28T21:01:46.651Z,12.50
2022-09-28T21:04:18.112Z,9.10
2022-09-28T21:09:19.681Z,12.40
2022-09-28T21:11:51.124Z,9.80
2022-09-28T21:14:24.023Z,13.80
2022-09-28T21:16:55.593Z,10.50
2022-09-28T21:21:57.270Z,9.70
2022-09-28T21:24:29.085Z,8.60
2022-09-28T21:27:00.570Z,14.40
2022-09-28T21:32:03.268Z,10.10
2022-09-28T21:34:35.991Z,12.70
2022-09-28T21:37:07.934Z,10.60
2022-09-28T21:39:39.422Z,8.90
2022-09-28T21:44:41.086Z,11.90
2022-09-28T21:49:42.654Z,11.00
2022-09-28T21:54:44.735Z,12.10
2022-09-28T21:57:16.562Z,9.10
2022-09-28T21:59:48.287Z,9.90
2022-09-28T22:02:21.997Z,12.10
2022-09-28T22:04:53.500Z,12.60
2022-09-28T22:07:25.105Z,9.40
2022-09-28T22:09:56.573Z,11.80
2022-09-28T22:14:58.169Z,13.60
2022-09-28T22:19:59.759Z,15.90
2022-09-28T22:25:01.812Z,9.90
2022-09-28T22:27:33.601Z,8.10
2022-09-28T22:30:05.566Z,10.70
2022-09-28T22:32:37.054Z,10.70
2022-09-28T22:37:41.244Z,10.80
2022-09-28T22:42:44.161Z,12.40
2022-09-28T22:47:45.797Z,9.60
2022-09-28T22:52:48.432Z,10.00
2022-09-28T22:55:19.927Z,8.40
2022-09-28T23:00:22.203Z,9.80
2022-09-28T23:02:53.709Z,9.10
2022-09-28T23:07:55.245Z,12.80
2022-09-28T23:10:26.830Z,12.10
2022-09-28T23:12:59.207Z,8.30
2022-09-28T23:15:30.690Z,10.40
2022-09-28T23:20:32.731Z,11.90
2022-09-28T23:23:04.259Z,8.80
2022-09-28T23:28:05.804Z,9.80
2022-09-28T23:33:07.888Z,9.30
2022-09-28T23:35:39.333Z,7.70
2022-09-28T23:40:42.711Z,15.30
2022-09-28T23:43:14.325Z,8.30
2022-09-28T23:45:46.033Z,11.20
2022-09-28T23:48:17.487Z,16.60
2022-09-28T23:50:48.933Z,8.70
2022-09-28T23:55:50.423Z,15.20
